createdAt,value
2022-10-20T00:00:07.237Z,3.58
2022-10-20T00:02:35.079Z,3.88
2022-10-20T00:05:02.964Z,3.30
2022-10-20T00:07:31.916Z,3.38
2022-10-20T00:09:59.503Z,4.53
2022-10-20T00:12:27.024Z,2.95
2022-10-20T00:14:54.583Z,3.45
2022-10-20T00:17:22.143Z,3.58
2022-10-20T00:19:49.998Z,3.90
2022-10-20T00:22:17.785Z,3.33
2022-10-20T00:24:46.786Z,3.03
2022-10-20T00:27:14.331Z,2.80
2022-10-20T00:29:41.923Z,3.20
2022-10-20T00:32:09.473Z,2.85
2022-10-20T00:34:37.086Z,2.95
2022-10-20T00:37:04.693Z,3.38
2022-10-20T00:39:32.344Z,4.00
2022-10-20T00:42:04.457Z,3.38
2022-10-20T00:44:49.232Z,3.45
2022-10-20T00:47:18.781Z,3.10
2022-10-20T00:49:47.353Z,3.05
2022-10-20T00:52:15.644Z,3.55
2022-10-20T00:54:43.548Z,3.20
2022-10-20T00:57:12.573Z,3.10
2022-10-20T00:59:40.618Z,4.47
2022-10-20T01:02:09.248Z,3.35
2022-10-20T01:04:37.459Z,3.28
2022-10-20T01:07:04.986Z,2.75
2022-10-20T01:09:33.107Z,2.65
2022-10-20T01:12:05.899Z,5.65
2022-10-20T01:14:39.682Z,3.50
2022-10-20T01:17:11.148Z,4.32
2022-10-20T01:19:59.502Z,2.90
2022-10-20T01:22:32.892Z,3.22
2022-10-20T01:25:07.404Z,3.17
2022-10-20T01:27:38.417Z,2.95
2022-10-20T01:30:11.255Z,3.38
2022-10-20T01:32:42.406Z,3.80
2022-10-20T01:35:12.674Z,5.07
2022-10-20T01:37:50.696Z,2.70
2022-10-20T01:40:21.483Z,2.97
2022-10-20T01:42:52.256Z,2.63
2022-10-20T01:45:21.446Z,2.63
2022-10-20T01:47:49.724Z,3.00
2022-10-20T01:50:18.255Z,3.30
2022-10-20T01:52:45.868Z,2.90
2022-10-20T01:55:14.757Z,2.90
2022-10-20T01:57:46.724Z,3.88
2022-10-20T02:00:16.412Z,3.75
2022-10-20T02:02:49.064Z,3.40
2022-10-20T02:05:24.999Z,4.72
2022-10-20T02:07:54.507Z,4.70
2022-10-20T02:10:23.825Z,3.88
2022-10-20T02:12:53.175Z,4.22
2022-10-20T02:15:25.001Z,3.30
2022-10-20T02:17:54.379Z,3.00
2022-10-20T02:20:22.337Z,3.00
2022-10-20T02:22:50.340Z,2.75
2022-10-20T02:25:17.967Z,3.10
2022-10-20T02:27:47.788Z,3.00
2022-10-20T02:30:17.048Z,3.20
2022-10-20T02:32:49.267Z,3.22
2022-10-20T02:35:19.356Z,3.08
2022-10-20T02:37:46.969Z,3.80
2022-10-20T02:40:14.751Z,3.10
2022-10-20T02:42:43.735Z,3.28
2022-10-20T02:45:11.407Z,2.80
2022-10-20T02:47:39.260Z,2.92
2022-10-20T02:50:09.379Z,4.13
2022-10-20T02:52:37.939Z,3.78
2022-10-20T02:55:05.820Z,2.88
2022-10-20T02:57:33.625Z,3.53
2022-10-20T03:00:01.237Z,3.30
2022-10-20T03:02:28.814Z,3.33
2022-10-20T03:04:56.429Z,2.90
2022-10-20T03:07:25.401Z,3.47
2022-10-20T03:09:52.958Z,3.15
2022-10-20T03:12:20.432Z,3.30
2022-10-20T03:14:48.040Z,3.17
2022-10-20T03:17:15.699Z,3.00
2022-10-20T03:19:43.278Z,3.35
2022-10-20T03:22:10.902Z,3.17
2022-10-20T03:24:39.879Z,3.08
2022-10-20T03:27:07.405Z,3.20
2022-10-20T03:29:34.920Z,6.93
2022-10-20T03:32:02.440Z,4.55
2022-10-20T03:34:30.054Z,5.82
2022-10-20T03:36:57.632Z,7.90
2022-10-20T03:39:25.158Z,5.75
2022-10-20T03:41:54.885Z,4.80
2022-10-20T03:44:22.411Z,3.75
2022-10-20T03:46:49.939Z,3.30
2022-10-20T03:49:17.488Z,3.70
2022-10-20T03:51:45.220Z,3.58
2022-10-20T03:54:12.856Z,3.80
2022-10-20T03:56:40.594Z,5.43
2022-10-20T03:59:10.481Z,4.18
2022-10-20T04:01:38.196Z,4.78
2022-10-20T04:04:05.811Z,3.75
2022-10-20T04:06:33.529Z,4.22
2022-10-20T04:09:01.041Z,5.15
2022-10-20T04:11:28.749Z,6.82
2022-10-20T04:13:56.306Z,7.40
2022-10-20T04:16:25.412Z,11.07
2022-10-20T04:18:53.082Z,14.30
2022-10-20T04:21:20.597Z,7.43
2022-10-20T04:23:48.137Z,6.28
2022-10-20T04:26:16.449Z,5.40
2022-10-20T04:28:44.201Z,4.35
2022-10-20T04:31:11.721Z,4.68
2022-10-20T04:33:40.671Z,4.05
2022-10-20T04:36:09.764Z,4.82
2022-10-20T04:38:37.304Z,4.47
2022-10-20T04:41:05.411Z,4.60
2022-10-20T04:43:33.124Z,4.10
2022-10-20T04:46:03.855Z,4.40
2022-10-20T04:48:34.666Z,4.68
2022-10-20T04:51:05.228Z,4.20
2022-10-20T04:53:32.795Z,4.28
2022-10-20T04:56:00.636Z,4.40
2022-10-20T04:58:28.670Z,5.63
2022-10-20T05:01:01.034Z,4.95
2022-10-20T05:03:28.633Z,4.97
2022-10-20T05:05:56.181Z,5.43
2022-10-20T05:08:25.117Z,5.38
2022-10-20T05:10:52.619Z,5.93
2022-10-20T05:13:20.107Z,5.63
2022-10-20T05:15:52.527Z,4.75
2022-10-20T05:18:20.199Z,4.70
2022-10-20T05:21:07.313Z,5.18
2022-10-20T05:23:36.804Z,4.45
2022-10-20T05:26:04.611Z,4.97
2022-10-20T05:28:32.335Z,5.18
2022-10-20T05:31:01.963Z,5.78
2022-10-20T05:33:29.765Z,4.90
2022-10-20T05:35:57.408Z,5.28
2022-10-20T05:38:24.957Z,5.00
2022-10-20T05:40:53.841Z,7.05
2022-10-20T05:43:21.486Z,5.68
2022-10-20T05:45:54.344Z,4.88
2022-10-20T05:48:22.088Z,6.07
2022-10-20T05:50:49.771Z,5.30
2022-10-20T05:53:17.384Z,5.65
2022-10-20T05:55:44.924Z,4.40
2022-10-20T05:58:13.796Z,4.72
2022-10-20T06:00:51.800Z,4.93
2022-10-20T06:03:20.263Z,4.78
2022-10-20T06:05:49.460Z,4.95
2022-10-20T06:08:32.208Z,5.45
2022-10-20T06:11:03.275Z,5.25
2022-10-20T06:13:31.561Z,4.72
2022-10-20T06:16:02.112Z,4.78
2022-10-20T06:18:29.884Z,9.25
2022-10-20T06:21:01.244Z,4.40
2022-10-20T06:23:28.844Z,5.22
2022-10-20T06:26:01.903Z,4.93
2022-10-20T06:28:30.097Z,4.63
2022-10-20T06:30:57.642Z,4.55
2022-10-20T06:33:25.249Z,4.90
2022-10-20T06:35:52.880Z,5.60
2022-10-20T06:38:20.352Z,6.30
2022-10-20T06:40:47.912Z,6.28
2022-10-20T06:43:16.762Z,5.07
2022-10-20T06:45:44.401Z,4.70
2022-10-20T06:48:11.901Z,4.53
2022-10-20T06:50:39.495Z,5.80
2022-10-20T06:53:07.056Z,4.78
2022-10-20T06:55:34.596Z,6.00
2022-10-20T06:58:02.199Z,14.82
2022-10-20T07:03:03.503Z,5.65
2022-10-20T07:05:31.087Z,3.95
2022-10-20T07:07:58.571Z,5.15
2022-10-20T07:10:26.095Z,4.82
2022-10-20T07:12:53.704Z,4.40
2022-10-20T07:15:21.203Z,4.40
2022-10-20T07:17:50.089Z,5.90
2022-10-20T07:20:17.781Z,4.20
2022-10-20T07:22:45.377Z,4.72
2022-10-20T07:25:12.888Z,3.78
2022-10-20T07:27:40.429Z,5.85
2022-10-20T07:30:08.376Z,3.70
2022-10-20T07:32:36.239Z,6.95
2022-10-20T07:35:05.538Z,4.05
2022-10-20T07:37:33.218Z,3.63
2022-10-20T07:40:00.743Z,3.60
2022-10-20T07:42:29.762Z,4.53
2022-10-20T07:44:57.288Z,3.58
2022-10-20T07:47:24.875Z,4.97
2022-10-20T07:49:52.464Z,3.53
2022-10-20T07:52:21.307Z,3.45
2022-10-20T07:54:48.826Z,3.58
2022-10-20T07:57:16.397Z,3.22
2022-10-20T07:59:44.067Z,5.40
2022-10-20T08:02:13.522Z,3.10
2022-10-20T08:04:41.760Z,3.05
2022-10-20T08:07:09.314Z,4.88
2022-10-20T08:09:38.271Z,2.95
2022-10-20T08:12:05.858Z,3.35
2022-10-20T08:14:35.141Z,3.28
2022-10-20T08:17:03.660Z,3.60
2022-10-20T08:19:35.833Z,2.88
2022-10-20T08:22:03.723Z,2.78
2022-10-20T08:24:31.558Z,3.10
2022-10-20T08:27:01.267Z,2.80
2022-10-20T08:29:28.839Z,3.17
2022-10-20T08:31:56.494Z,3.25
2022-10-20T08:34:24.037Z,3.88
2022-10-20T08:36:51.532Z,2.90
2022-10-20T08:39:19.558Z,3.50
2022-10-20T08:42:06.897Z,2.90
2022-10-20T08:44:37.152Z,2.97
2022-10-20T08:47:05.942Z,3.45
2022-10-20T08:49:34.789Z,3.95
2022-10-20T08:52:03.195Z,3.40
2022-10-20T08:54:33.378Z,3.38
2022-10-20T08:57:01.172Z,3.25
2022-10-20T08:59:30.343Z,3.70
2022-10-20T09:02:03.045Z,3.13
2022-10-20T09:04:34.956Z,3.65
2022-10-20T09:07:05.368Z,4.13
2022-10-20T09:09:33.456Z,3.58
2022-10-20T09:12:04.154Z,3.95
2022-10-20T09:14:33.452Z,3.72
2022-10-20T09:17:02.399Z,3.70
2022-10-20T09:19:30.033Z,4.53
2022-10-20T09:21:58.830Z,4.28
2022-10-20T09:24:29.902Z,4.00
2022-10-20T09:26:59.491Z,4.40
2022-10-20T09:29:36.209Z,3.92
2022-10-20T09:32:44.997Z,4.07
2022-10-20T09:35:19.413Z,4.32
2022-10-20T09:37:51.771Z,4.40
2022-10-20T09:40:19.963Z,4.15
2022-10-20T09:42:50.209Z,4.25
2022-10-20T09:45:21.922Z,4.10
2022-10-20T09:47:52.369Z,3.95
2022-10-20T09:50:21.589Z,4.25
2022-10-20T09:52:49.360Z,3.92
2022-10-20T09:55:26.800Z,4.70
2022-10-20T09:57:54.722Z,3.97
2022-10-20T10:00:36.728Z,5.10
2022-10-20T10:03:10.554Z,4.95
2022-10-20T10:05:38.244Z,4.20
2022-10-20T10:08:05.759Z,4.03
2022-10-20T10:10:33.357Z,5.07
2022-10-20T10:13:04.009Z,5.03
2022-10-20T10:15:32.460Z,4.28
2022-10-20T10:18:01.076Z,4.20
2022-10-20T10:20:35.879Z,4.20
2022-10-20T10:23:16.819Z,3.97
2022-10-20T10:25:44.582Z,3.95
2022-10-20T10:28:21.451Z,3.90
2022-10-20T10:30:50.177Z,4.18
2022-10-20T10:33:24.816Z,4.03
2022-10-20T10:35:53.866Z,3.80
2022-10-20T10:38:21.635Z,4.32
2022-10-20T10:40:54.044Z,4.35
2022-10-20T10:43:30.405Z,6.78
2022-10-20T10:45:58.922Z,3.97
2022-10-20T10:48:34.647Z,3.70
2022-10-20T10:51:05.750Z,3.92
2022-10-20T10:53:43.200Z,3.88
2022-10-20T10:56:14.587Z,4.40
2022-10-20T10:58:46.076Z,4.22
2022-10-20T11:01:25.619Z,4.28
2022-10-20T11:04:02.506Z,3.90
2022-10-20T11:06:35.560Z,4.50
2022-10-20T11:09:20.800Z,4.60
2022-10-20T11:11:54.798Z,4.15
2022-10-20T11:14:28.525Z,3.92
2022-10-20T11:17:01.346Z,4.45
2022-10-20T11:19:47.029Z,3.95
2022-10-20T11:22:20.660Z,4.28
2022-10-20T11:24:50.116Z,4.30
2022-10-20T11:27:19.804Z,5.05
2022-10-20T11:29:48.564Z,5.05
2022-10-20T11:32:22.932Z,4.88
2022-10-20T11:34:57.429Z,5.00
2022-10-20T11:37:28.493Z,4.78
2022-10-20T11:39:58.552Z,4.55
2022-10-20T11:42:29.513Z,4.93
2022-10-20T11:44:57.776Z,5.13
2022-10-20T11:47:28.197Z,5.07
2022-10-20T11:49:56.248Z,5.10
2022-10-20T11:52:42.660Z,5.40
2022-10-20T11:55:21.149Z,5.18
2022-10-20T11:58:01.222Z,5.43
2022-10-20T12:00:37.821Z,5.90
2022-10-20T12:03:21.983Z,5.78
2022-10-20T12:06:09.041Z,5.85
2022-10-20T12:08:58.843Z,5.63
2022-10-20T12:11:30.067Z,5.38
2022-10-20T12:13:59.532Z,5.40
2022-10-20T12:16:51.344Z,5.38
2022-10-20T12:19:20.100Z,5.32
2022-10-20T12:21:57.311Z,5.55
2022-10-20T12:24:33.155Z,5.60
2022-10-20T12:27:07.187Z,9.82
2022-10-20T12:29:55.996Z,5.63
2022-10-20T12:32:41.265Z,5.65
2022-10-20T12:35:28.517Z,6.00
2022-10-20T12:37:56.667Z,5.80
2022-10-20T12:40:27.070Z,6.05
2022-10-20T12:42:56.332Z,6.05
2022-10-20T12:45:30.747Z,6.28
2022-10-20T12:48:00.225Z,6.05
2022-10-20T12:50:33.237Z,6.35
2022-10-20T12:53:10.400Z,5.75
2022-10-20T12:55:41.810Z,6.45
2022-10-20T12:58:26.300Z,5.68
2022-10-20T13:01:07.915Z,5.97
2022-10-20T13:03:40.872Z,6.93
2022-10-20T13:06:33.195Z,6.22
2022-10-20T13:09:12.600Z,6.45
2022-10-20T13:11:44.552Z,6.15
2022-10-20T13:14:23.541Z,6.00
2022-10-20T13:16:52.760Z,6.47
2022-10-20T13:19:22.489Z,6.50
2022-10-20T13:21:50.196Z,6.68
2022-10-20T13:24:19.816Z,6.10
2022-10-20T13:26:51.588Z,5.82
2022-10-20T13:29:22.935Z,6.40
2022-10-20T13:31:59.119Z,6.18
2022-10-20T13:34:33.838Z,5.95
2022-10-20T13:37:08.372Z,6.07
2022-10-20T13:39:39.852Z,6.05
2022-10-20T13:42:13.897Z,6.20
2022-10-20T13:44:48.931Z,5.55
2022-10-20T13:47:26.880Z,5.35
2022-10-20T13:49:59.999Z,6.00
2022-10-20T13:52:29.271Z,5.35
2022-10-20T13:54:58.017Z,5.88
2022-10-20T13:57:31.208Z,5.75
2022-10-20T14:00:01.533Z,5.72
2022-10-20T14:02:30.636Z,5.32
2022-10-20T14:05:05.926Z,5.07
2022-10-20T14:07:37.222Z,5.15
2022-10-20T14:10:05.438Z,5.72
2022-10-20T14:12:33.791Z,5.47
2022-10-20T14:15:04.893Z,6.05
2022-10-20T14:17:32.376Z,5.78
2022-10-20T14:20:09.629Z,6.00
2022-10-20T14:22:43.560Z,5.75
2022-10-20T14:25:11.892Z,5.43
2022-10-20T14:27:39.935Z,5.82
2022-10-20T14:30:14.960Z,5.43
2022-10-20T14:32:44.080Z,5.53
2022-10-20T14:35:21.961Z,6.00
2022-10-20T14:37:52.608Z,5.57
2022-10-20T14:40:21.252Z,5.93
2022-10-20T14:42:48.818Z,5.90
2022-10-20T14:45:22.614Z,6.00
2022-10-20T14:47:51.033Z,5.95
2022-10-20T14:50:23.617Z,5.90
2022-10-20T14:52:53.998Z,6.22
2022-10-20T14:55:28.844Z,7.07
2022-10-20T14:57:56.447Z,6.50
2022-10-20T15:00:26.723Z,6.68
2022-10-20T15:02:56.877Z,6.63
2022-10-20T15:05:25.284Z,6.45
2022-10-20T15:07:53.204Z,6.78
2022-10-20T15:10:22.484Z,7.03
2022-10-20T15:12:52.120Z,7.20
2022-10-20T15:15:21.790Z,7.60
2022-10-20T15:17:51.228Z,6.60
2022-10-20T15:20:33.159Z,6.70
2022-10-20T15:23:01.659Z,6.47
2022-10-20T15:25:30.221Z,7.00
2022-10-20T15:27:58.011Z,6.57
2022-10-20T15:30:26.339Z,8.30
2022-10-20T15:32:55.596Z,6.43
2022-10-20T15:35:24.176Z,6.55
2022-10-20T15:37:52.652Z,6.35
2022-10-20T15:40:20.681Z,6.80
2022-10-20T15:42:48.536Z,6.30
2022-10-20T15:45:17.376Z,6.13
2022-10-20T15:47:45.044Z,7.00
2022-10-20T15:50:14.245Z,6.28
2022-10-20T15:52:41.828Z,7.00
2022-10-20T15:55:22.390Z,9.25
2022-10-20T15:57:50.663Z,7.93
2022-10-20T16:00:18.749Z,7.63
2022-10-20T16:02:46.520Z,7.28
2022-10-20T16:05:15.884Z,6.50
2022-10-20T16:07:43.441Z,6.93
2022-10-20T16:10:12.056Z,7.18
2022-10-20T16:12:40.803Z,7.40
2022-10-20T16:15:09.039Z,7.50
2022-10-20T16:17:36.856Z,7.30
2022-10-20T16:20:05.331Z,7.13
2022-10-20T16:22:34.708Z,7.70
2022-10-20T16:25:02.574Z,7.35
2022-10-20T16:27:30.176Z,7.28
2022-10-20T16:29:57.942Z,7.85
2022-10-20T16:32:25.645Z,7.22
2022-10-20T16:34:53.365Z,7.85
2022-10-20T16:37:20.876Z,7.22
2022-10-20T16:39:49.719Z,7.63
2022-10-20T16:42:17.229Z,7.65
2022-10-20T16:44:44.777Z,7.38
2022-10-20T16:47:12.321Z,7.22
2022-10-20T16:49:39.905Z,7.55
2022-10-20T16:52:07.823Z,8.05
2022-10-20T16:54:36.149Z,7.82
2022-10-20T16:57:07.004Z,8.15
2022-10-20T16:59:34.533Z,7.53
2022-10-20T17:02:02.277Z,7.93
2022-10-20T17:04:30.002Z,6.95
2022-10-20T17:06:57.600Z,7.70
2022-10-20T17:09:25.344Z,7.47
2022-10-20T17:11:52.976Z,8.13
2022-10-20T17:14:21.923Z,7.63
2022-10-20T17:16:49.520Z,8.05
2022-10-20T17:19:16.980Z,7.88
2022-10-20T17:21:44.519Z,8.02
2022-10-20T17:24:12.372Z,7.93
2022-10-20T17:26:40.979Z,7.32
2022-10-20T17:29:09.379Z,7.82
2022-10-20T17:31:38.788Z,8.82
2022-10-20T17:34:06.354Z,9.80
2022-10-20T17:36:34.153Z,7.40
2022-10-20T17:39:02.777Z,7.63
2022-10-20T17:41:30.725Z,8.77
2022-10-20T17:43:59.925Z,11.27
2022-10-20T17:46:27.699Z,9.02
2022-10-20T17:48:56.661Z,8.70
2022-10-20T17:51:27.705Z,7.88
2022-10-20T17:53:58.533Z,7.90
2022-10-20T17:56:28.254Z,8.80
2022-10-20T17:58:56.604Z,7.53
2022-10-20T18:01:25.545Z,7.15
2022-10-20T18:03:54.977Z,7.47
2022-10-20T18:06:24.549Z,7.55
2022-10-20T18:08:53.906Z,7.38
2022-10-20T18:11:22.717Z,8.48
2022-10-20T18:13:50.338Z,7.00
2022-10-20T18:16:19.413Z,9.05
2022-10-20T18:18:47.183Z,8.13
2022-10-20T18:21:15.668Z,8.18
2022-10-20T18:23:45.802Z,7.72
2022-10-20T18:26:14.799Z,7.85
2022-10-20T18:28:45.693Z,7.30
2022-10-20T18:31:17.342Z,7.03
2022-10-20T18:33:44.866Z,6.65
2022-10-20T18:36:13.013Z,6.88
2022-10-20T18:38:41.567Z,7.22
2022-10-20T18:41:11.702Z,9.10
2022-10-20T18:43:39.331Z,7.70
2022-10-20T18:46:07.975Z,7.75
2022-10-20T18:48:36.727Z,7.28
2022-10-20T18:51:04.993Z,7.32
2022-10-20T18:53:33.297Z,7.47
2022-10-20T18:56:01.576Z,7.57
2022-10-20T18:58:30.987Z,7.75
2022-10-20T19:00:59.473Z,8.05
2022-10-20T19:03:30.993Z,8.10
2022-10-20T19:05:59.196Z,8.00
2022-10-20T19:08:26.836Z,8.07
2022-10-20T19:10:54.480Z,7.63
2022-10-20T19:13:22.073Z,8.18
2022-10-20T19:15:50.988Z,7.50
2022-10-20T19:18:18.507Z,7.43
2022-10-20T19:20:53.773Z,7.53
2022-10-20T19:23:21.454Z,7.32
2022-10-20T19:25:49.055Z,7.68
2022-10-20T19:28:16.641Z,7.63
2022-10-20T19:30:44.143Z,9.13
2022-10-20T19:33:12.987Z,7.82
2022-10-20T19:35:40.516Z,8.40
2022-10-20T19:38:08.138Z,7.93
2022-10-20T19:40:35.797Z,8.50
2022-10-20T19:43:03.359Z,9.88
2022-10-20T19:45:30.905Z,11.60
2022-10-20T19:47:58.635Z,7.47
2022-10-20T19:50:27.476Z,8.35
2022-10-20T19:52:57.963Z,8.48
2022-10-20T19:55:26.420Z,8.38
2022-10-20T19:57:54.126Z,8.60
2022-10-20T20:00:21.770Z,15.05
2022-10-20T20:02:49.333Z,8.52
2022-10-20T20:05:17.055Z,9.13
2022-10-20T20:07:45.952Z,10.15
2022-10-20T20:10:13.551Z,8.90
2022-10-20T20:12:41.212Z,7.97
2022-10-20T20:15:08.868Z,10.73
2022-10-20T20:17:36.776Z,8.52
2022-10-20T20:20:04.690Z,8.48
2022-10-20T20:22:32.226Z,8.63
2022-10-20T20:25:01.083Z,9.60
2022-10-20T20:27:28.587Z,8.05
2022-10-20T20:29:57.905Z,9.13
2022-10-20T20:32:25.535Z,11.18
2022-10-20T20:34:53.130Z,8.35
2022-10-20T20:37:21.323Z,8.60
2022-10-20T20:39:48.832Z,8.80
2022-10-20T20:42:17.708Z,10.75
2022-10-20T20:44:45.204Z,8.65
2022-10-20T20:47:12.761Z,9.38
2022-10-20T20:49:40.310Z,8.95
2022-10-20T20:52:07.822Z,10.00
2022-10-20T20:54:35.347Z,9.23
2022-10-20T20:57:02.894Z,9.95
2022-10-20T20:59:31.766Z,9.50
2022-10-20T21:01:59.348Z,9.20
2022-10-20T21:04:30.574Z,10.18
2022-10-20T21:07:02.679Z,10.35
2022-10-20T21:09:30.837Z,9.32
2022-10-20T21:11:58.433Z,8.85
2022-10-20T21:14:26.107Z,10.18
2022-10-20T21:16:55.170Z,11.10
2022-10-20T21:19:22.887Z,10.20
2022-10-20T21:21:52.151Z,8.95
2022-10-20T21:24:19.870Z,10.70
2022-10-20T21:26:48.687Z,9.45
2022-10-20T21:29:16.325Z,10.07
2022-10-20T21:31:43.862Z,12.82
2022-10-20T21:34:12.934Z,10.43
2022-10-20T21:36:40.910Z,10.68
2022-10-20T21:39:11.279Z,10.27
2022-10-20T21:41:38.988Z,10.50
2022-10-20T21:44:07.581Z,10.57
2022-10-20T21:46:35.844Z,12.88
2022-10-20T21:49:04.511Z,12.57
2022-10-20T21:51:34.295Z,12.50
2022-10-20T21:54:02.644Z,12.57
2022-10-20T21:56:30.215Z,11.80
2022-10-20T21:58:57.742Z,10.20
2022-10-20T22:01:25.901Z,9.85
2022-10-20T22:03:54.040Z,13.77
2022-10-20T22:06:22.802Z,11.38
2022-10-20T22:08:52.420Z,13.15
2022-10-20T22:11:21.095Z,12.05
2022-10-20T22:13:49.289Z,13.90
2022-10-20T22:16:18.207Z,13.85
2022-10-20T22:18:45.697Z,11.35
2022-10-20T22:21:14.413Z,14.35
2022-10-20T22:23:42.263Z,14.02
2022-10-20T22:26:11.882Z,12.80
2022-10-20T22:28:39.470Z,11.13
2022-10-20T22:31:07.608Z,12.98
2022-10-20T22:33:35.274Z,13.07
2022-10-20T22:36:02.904Z,14.07
2022-10-20T22:38:30.456Z,13.82
2022-10-20T22:40:58.848Z,12.07
2022-10-20T22:43:28.144Z,11.65
2022-10-20T22:45:55.845Z,11.68
2022-10-20T22:48:23.588Z,13.10
2022-10-20T22:50:51.332Z,12.88
2022-10-20T22:53:18.885Z,11.30
2022-10-20T22:55:46.442Z,12.55
2022-10-20T22:58:13.921Z,12.65
2022-10-20T23:00:43.531Z,13.40
2022-10-20T23:03:11.461Z,16.02
2022-10-20T23:05:39.024Z,15.25
2022-10-20T23:08:06.681Z,13.10
2022-10-20T23:10:34.239Z,15.07
2022-10-20T23:13:01.797Z,11.95
2022-10-20T23:15:29.284Z,11.90
2022-10-20T23:17:58.171Z,11.45
2022-10-20T23:20:25.734Z,13.27
2022-10-20T23:22:53.523Z,12.55
2022-10-20T23:25:21.009Z,14.75
2022-10-20T23:27:48.617Z,13.43
2022-10-20T23:30:16.092Z,15.23
2022-10-20T23:32:43.874Z,14.57
2022-10-20T23:35:12.822Z,15.30
2022-10-20T23:37:40.597Z,13.30
2022-10-20T23:40:08.827Z,14.27
2022-10-20T23:42:36.335Z,17.88
2022-10-20T23:45:04.048Z,15.30
2022-10-20T23:47:31.675Z,18.13
2022-10-20T23:49:59.167Z,16.02
2022-10-20T23:52:28.348Z,12.10
2022-10-20T23:54:55.958Z,13.45
2022-10-20T23:57:23.461Z,13.50
2022-10-20T23:59:50.993Z,13.80
